createdAt,value
2019-02-25T00:01:06.820Z,35.60
2019-02-25T00:03:38.955Z,35.47
2019-02-25T00:06:11.090Z,35.43
2019-02-25T00:08:43.227Z,35.34
2019-02-25T00:11:15.352Z,35.33
2019-02-25T00:13:47.494Z,35.35
2019-02-25T00:16:19.618Z,35.38
2019-02-25T00:18:51.766Z,35.47
2019-02-25T00:21:23.885Z,35.38
2019-02-25T00:23:56.010Z,35.37
2019-02-25T00:26:28.139Z,35.41
2019-02-25T00:29:00.273Z,35.44
2019-02-25T00:31:32.401Z,35.44
2019-02-25T00:34:05.604Z,35.40
2019-02-25T00:36:37.731Z,35.46
2019-02-25T00:39:09.883Z,35.38
2019-02-25T00:41:41.989Z,35.43
2019-02-25T00:44:14.117Z,35.49
2019-02-25T00:46:46.249Z,35.49
2019-02-25T00:49:18.375Z,35.44
2019-02-25T00:51:50.499Z,35.43
2019-02-25T00:54:22.629Z,35.40
2019-02-25T00:56:54.766Z,35.44
2019-02-25T00:59:26.910Z,35.34
2019-02-25T01:01:59.043Z,35.39
2019-02-25T01:04:31.168Z,35.37
2019-02-25T01:07:03.300Z,35.40
2019-02-25T01:09:35.426Z,35.47
2019-02-25T01:12:07.551Z,35.41
2019-02-25T01:14:39.685Z,35.51
2019-02-25T01:17:11.815Z,35.45
2019-02-25T01:19:43.946Z,35.47
2019-02-25T01:22:16.075Z,35.47
2019-02-25T01:24:48.210Z,35.38
2019-02-25T01:27:20.334Z,35.45
2019-02-25T01:29:52.460Z,35.36
2019-02-25T01:32:25.659Z,35.28
2019-02-25T01:34:57.805Z,35.30
2019-02-25T01:37:29.930Z,35.25
2019-02-25T01:40:02.073Z,35.27
2019-02-25T01:42:34.376Z,35.19
2019-02-25T01:45:06.506Z,35.11
2019-02-25T01:47:38.636Z,35.07
2019-02-25T01:50:10.769Z,35.10
2019-02-25T01:52:42.907Z,35.02
2019-02-25T01:55:15.052Z,35.04
2019-02-25T01:57:47.453Z,35.07
2019-02-25T02:00:19.587Z,35.01
2019-02-25T02:02:51.715Z,34.91
2019-02-25T02:05:24.611Z,34.97
2019-02-25T02:07:56.951Z,34.84
2019-02-25T02:10:29.094Z,34.87
2019-02-25T02:13:01.215Z,34.89
2019-02-25T02:15:33.346Z,34.86
2019-02-25T02:18:05.474Z,34.81
2019-02-25T02:20:37.602Z,34.83
2019-02-25T02:23:09.729Z,34.75
2019-02-25T02:25:41.865Z,34.72
2019-02-25T02:28:13.989Z,34.75
2019-02-25T02:30:46.145Z,34.71
2019-02-25T02:33:18.282Z,34.73
2019-02-25T02:35:50.404Z,34.73
2019-02-25T02:38:22.530Z,34.78
2019-02-25T02:40:54.662Z,34.70
2019-02-25T02:43:26.790Z,34.90
2019-02-25T02:45:59.887Z,34.77
2019-02-25T02:48:32.009Z,34.89
2019-02-25T02:51:04.139Z,34.78
2019-02-25T02:53:36.267Z,34.74
2019-02-25T02:56:08.401Z,34.81
2019-02-25T02:58:40.525Z,34.84
2019-02-25T03:01:12.656Z,34.97
2019-02-25T03:03:44.790Z,34.84
2019-02-25T03:06:16.924Z,34.87
2019-02-25T03:08:49.059Z,34.81
2019-02-25T03:11:22.166Z,34.82
2019-02-25T03:13:54.302Z,34.77
2019-02-25T03:16:26.426Z,34.72
2019-02-25T03:18:58.555Z,34.68
2019-02-25T03:21:30.692Z,34.51
2019-02-25T03:24:02.817Z,34.35
2019-02-25T03:26:34.947Z,34.42
2019-02-25T03:29:07.088Z,34.43
2019-02-25T03:31:39.223Z,34.33
2019-02-25T03:34:11.348Z,34.28
2019-02-25T03:36:43.490Z,34.35
2019-02-25T03:39:15.613Z,34.26
2019-02-25T03:41:47.739Z,34.38
2019-02-25T03:44:19.880Z,34.31
2019-02-25T03:46:52.013Z,34.12
2019-02-25T03:49:24.138Z,34.18
2019-02-25T03:51:56.274Z,34.15
2019-02-25T03:54:28.404Z,34.08
2019-02-25T03:57:00.540Z,34.07
2019-02-25T03:59:32.675Z,34.09
2019-02-25T04:02:04.810Z,34.03
2019-02-25T04:04:36.937Z,34.19
2019-02-25T04:07:09.068Z,34.21
2019-02-25T04:09:41.201Z,34.27
2019-02-25T04:12:13.333Z,34.24
2019-02-25T04:14:45.471Z,34.20
2019-02-25T04:17:17.601Z,34.03
2019-02-25T04:19:49.731Z,33.95
2019-02-25T04:22:21.868Z,33.85
2019-02-25T04:24:53.995Z,33.87
2019-02-25T04:27:26.133Z,33.84
2019-02-25T04:29:58.272Z,33.92
2019-02-25T04:32:30.412Z,33.88
2019-02-25T04:35:02.568Z,33.88
2019-02-25T04:37:34.678Z,33.92
2019-02-25T04:40:06.810Z,33.92
2019-02-25T04:42:38.949Z,33.94
2019-02-25T04:45:11.065Z,33.79
2019-02-25T04:47:43.220Z,33.81
2019-02-25T04:50:15.356Z,33.71
2019-02-25T04:52:47.486Z,33.58
2019-02-25T04:55:19.613Z,33.48
2019-02-25T04:57:51.737Z,33.37
2019-02-25T05:00:23.864Z,33.43
2019-02-25T05:02:55.992Z,33.53
2019-02-25T05:05:28.120Z,33.55
2019-02-25T05:08:00.247Z,33.65
2019-02-25T05:10:32.379Z,33.64
2019-02-25T05:13:04.515Z,33.55
2019-02-25T05:15:36.648Z,33.48
2019-02-25T05:18:08.778Z,33.42
2019-02-25T05:20:40.904Z,33.38
2019-02-25T05:23:13.048Z,33.22
2019-02-25T05:25:45.174Z,33.14
2019-02-25T05:28:17.306Z,33.10
2019-02-25T05:30:49.438Z,33.19
2019-02-25T05:33:21.606Z,33.21
2019-02-25T05:35:53.981Z,33.20
2019-02-25T05:38:26.108Z,33.01
2019-02-25T05:40:58.239Z,32.64
2019-02-25T05:43:30.370Z,32.13
2019-02-25T05:46:02.501Z,31.53
2019-02-25T05:48:34.626Z,31.17
2019-02-25T05:51:06.753Z,30.93
2019-02-25T05:53:38.878Z,30.91
2019-02-25T05:56:11.007Z,30.68
2019-02-25T05:58:43.133Z,31.11
2019-02-25T06:01:15.277Z,31.56
2019-02-25T06:03:47.403Z,31.91
2019-02-25T06:06:19.550Z,32.29
2019-02-25T06:08:51.674Z,32.50
2019-02-25T06:11:23.804Z,32.53
2019-02-25T06:13:55.945Z,32.97
2019-02-25T06:16:28.083Z,33.37
2019-02-25T06:19:00.220Z,33.31
2019-02-25T06:21:32.349Z,32.85
2019-02-25T06:24:04.479Z,32.75
2019-02-25T06:26:38.609Z,32.61
2019-02-25T06:29:10.446Z,32.50
2019-02-25T06:31:42.581Z,32.42
2019-02-25T06:34:14.704Z,32.53
2019-02-25T06:36:46.845Z,32.72
2019-02-25T06:39:18.986Z,32.93
2019-02-25T06:41:51.130Z,33.09
2019-02-25T06:44:23.265Z,33.26
2019-02-25T06:46:55.448Z,33.71
2019-02-25T06:49:27.544Z,34.09
2019-02-25T06:51:59.681Z,34.07
2019-02-25T06:54:31.856Z,33.71
2019-02-25T06:57:03.957Z,33.91
2019-02-25T06:59:36.091Z,34.16
2019-02-25T07:02:08.223Z,33.88
2019-02-25T07:04:40.357Z,33.70
2019-02-25T07:07:12.489Z,33.48
2019-02-25T07:09:44.620Z,33.36
2019-02-25T07:12:16.752Z,33.06
2019-02-25T07:14:48.889Z,32.90
2019-02-25T07:17:22.658Z,32.95
2019-02-25T07:19:54.930Z,32.83
2019-02-25T07:22:27.060Z,32.83
2019-02-25T07:24:59.189Z,32.66
2019-02-25T07:27:31.324Z,32.51
2019-02-25T07:30:03.448Z,32.54
2019-02-25T07:32:36.541Z,32.49
2019-02-25T07:35:08.670Z,32.56
2019-02-25T07:37:40.811Z,32.58
2019-02-25T07:40:12.948Z,32.73
2019-02-25T07:42:45.069Z,32.89
2019-02-25T07:45:17.201Z,32.93
2019-02-25T07:47:49.350Z,33.03
2019-02-25T07:50:21.472Z,33.08
2019-02-25T07:52:53.600Z,33.33
2019-02-25T07:55:25.729Z,34.01
2019-02-25T07:57:57.867Z,34.54
2019-02-25T08:00:29.997Z,34.54
2019-02-25T08:03:02.134Z,34.33
2019-02-25T08:05:34.261Z,34.37
2019-02-25T08:08:06.393Z,34.26
2019-02-25T08:10:38.523Z,34.50
2019-02-25T08:13:10.652Z,34.28
2019-02-25T08:15:42.781Z,34.10
2019-02-25T08:18:14.926Z,34.00
2019-02-25T08:20:47.053Z,34.15
2019-02-25T08:23:19.183Z,34.11
2019-02-25T08:25:52.078Z,34.15
2019-02-25T08:28:24.224Z,34.18
2019-02-25T08:30:56.362Z,34.19
2019-02-25T08:33:28.491Z,34.25
2019-02-25T08:36:00.620Z,34.65
2019-02-25T08:38:32.760Z,35.40
2019-02-25T08:41:04.896Z,35.51
2019-02-25T08:43:37.037Z,35.60
2019-02-25T08:46:09.170Z,35.89
2019-02-25T08:48:41.307Z,35.97
2019-02-25T08:51:13.436Z,36.08
2019-02-25T08:53:45.566Z,36.03
2019-02-25T08:56:18.674Z,36.10
2019-02-25T08:58:50.806Z,36.03
2019-02-25T09:01:22.936Z,36.00
2019-02-25T09:03:55.080Z,35.96
2019-02-25T09:06:27.216Z,35.95
2019-02-25T09:08:59.365Z,35.79
2019-02-25T09:11:31.499Z,35.77
2019-02-25T09:14:03.629Z,35.66
2019-02-25T09:16:35.765Z,35.51
2019-02-25T09:19:07.909Z,35.53
2019-02-25T09:21:40.053Z,35.40
2019-02-25T09:24:12.184Z,35.30
2019-02-25T09:26:44.309Z,35.10
2019-02-25T09:29:16.451Z,34.94
2019-02-25T09:31:48.574Z,34.79
2019-02-25T09:34:20.709Z,34.58
2019-02-25T09:36:52.899Z,34.48
2019-02-25T09:39:24.995Z,34.23
2019-02-25T09:41:57.127Z,34.10
2019-02-25T09:44:29.255Z,34.03
2019-02-25T09:47:01.394Z,33.80
2019-02-25T09:49:33.522Z,33.55
2019-02-25T09:52:05.663Z,33.63
2019-02-25T09:54:37.786Z,33.42
2019-02-25T09:57:09.934Z,33.21
2019-02-25T09:59:42.062Z,33.20
2019-02-25T10:02:14.200Z,33.08
2019-02-25T10:04:46.334Z,32.96
2019-02-25T10:07:18.463Z,32.95
2019-02-25T10:09:50.597Z,32.93
2019-02-25T10:12:22.733Z,32.89
2019-02-25T10:14:55.833Z,32.92
2019-02-25T10:17:27.963Z,32.87
2019-02-25T10:20:00.144Z,32.70
2019-02-25T10:22:32.861Z,32.60
2019-02-25T10:25:04.998Z,32.57
2019-02-25T10:27:37.137Z,32.42
2019-02-25T10:30:09.271Z,32.25
2019-02-25T10:32:41.415Z,32.20
2019-02-25T10:35:13.534Z,32.21
2019-02-25T10:37:45.666Z,32.12
2019-02-25T10:40:22.158Z,32.05
2019-02-25T10:42:51.618Z,32.02
2019-02-25T10:45:23.747Z,32.09
2019-02-25T10:47:58.626Z,32.13
2019-02-25T10:50:31.086Z,32.06
2019-02-25T10:53:03.839Z,32.20
2019-02-25T10:55:35.941Z,32.33
2019-02-25T10:58:08.074Z,32.41
2019-02-25T11:00:41.656Z,32.73
2019-02-25T11:03:15.288Z,32.72
2019-02-25T11:05:47.861Z,32.78
2019-02-25T11:08:19.986Z,32.80
2019-02-25T11:10:54.924Z,32.83
2019-02-25T11:13:27.554Z,32.96
2019-02-25T11:16:01.025Z,32.96
2019-02-25T11:18:33.149Z,33.00
2019-02-25T11:21:06.110Z,32.91
2019-02-25T11:23:39.106Z,32.93
2019-02-25T11:26:11.226Z,32.98
2019-02-25T11:28:43.817Z,32.91
2019-02-25T11:31:18.151Z,32.95
2019-02-25T11:33:49.922Z,32.99
2019-02-25T11:36:22.165Z,32.98
2019-02-25T11:38:54.253Z,33.06
2019-02-25T11:41:27.442Z,33.12
2019-02-25T11:43:59.581Z,33.16
2019-02-25T11:46:31.701Z,33.23
2019-02-25T11:49:03.828Z,33.36
2019-02-25T11:51:35.963Z,33.46
2019-02-25T11:54:08.084Z,33.57
2019-02-25T11:56:40.221Z,33.64
2019-02-25T11:59:12.359Z,33.67
2019-02-25T12:01:44.481Z,33.76
2019-02-25T12:04:16.870Z,33.83
2019-02-25T12:06:49.002Z,33.90
2019-02-25T12:09:21.133Z,34.02
2019-02-25T12:11:53.262Z,33.87
2019-02-25T12:14:25.417Z,33.94
2019-02-25T12:16:57.537Z,34.08
2019-02-25T12:19:29.664Z,34.10
2019-02-25T12:22:01.789Z,34.16
2019-02-25T12:24:33.917Z,34.28
2019-02-25T12:27:06.052Z,34.33
2019-02-25T12:29:38.258Z,34.36
2019-02-25T12:32:10.382Z,34.44
2019-02-25T12:34:42.506Z,34.51
2019-02-25T12:37:14.633Z,34.60
2019-02-25T12:39:46.763Z,34.63
2019-02-25T12:42:18.891Z,34.71
2019-02-25T12:44:51.041Z,34.69
2019-02-25T12:47:23.172Z,34.79
2019-02-25T12:49:55.304Z,34.84
2019-02-25T12:52:27.429Z,34.99
2019-02-25T12:54:59.555Z,34.97
2019-02-25T12:57:31.680Z,35.06
2019-02-25T13:00:03.808Z,35.21
2019-02-25T13:02:36.006Z,35.25
2019-02-25T13:05:08.137Z,35.34
2019-02-25T13:07:40.262Z,35.35
2019-02-25T13:10:12.396Z,35.43
2019-02-25T13:12:44.535Z,35.47
2019-02-25T13:15:16.666Z,35.49
2019-02-25T13:17:48.785Z,35.54
2019-02-25T13:20:20.921Z,35.50
2019-02-25T13:22:53.060Z,35.55
2019-02-25T13:25:25.492Z,35.60
2019-02-25T13:27:58.765Z,35.63
2019-02-25T13:30:31.544Z,35.65
2019-02-25T13:33:03.675Z,35.65
2019-02-25T13:35:35.829Z,35.72
2019-02-25T13:38:07.959Z,35.81
2019-02-25T13:40:40.084Z,35.78
2019-02-25T13:43:12.207Z,35.82
2019-02-25T13:45:45.315Z,35.82
2019-02-25T13:48:18.424Z,35.84
2019-02-25T13:50:50.560Z,35.84
2019-02-25T13:53:22.859Z,35.85
2019-02-25T13:55:54.992Z,35.88
2019-02-25T13:58:27.132Z,35.86
2019-02-25T14:00:59.256Z,35.85
2019-02-25T14:03:31.381Z,35.87
2019-02-25T14:06:03.517Z,35.81
2019-02-25T14:08:35.650Z,35.81
2019-02-25T14:11:07.777Z,35.88
2019-02-25T14:13:39.911Z,35.87
2019-02-25T14:16:12.042Z,35.85
2019-02-25T14:18:44.173Z,35.88
2019-02-25T14:21:16.835Z,35.91
2019-02-25T14:23:49.100Z,35.92
2019-02-25T14:26:21.245Z,35.91
2019-02-25T14:28:53.373Z,35.90
2019-02-25T14:31:27.315Z,35.94
2019-02-25T14:33:59.614Z,35.94
2019-02-25T14:36:31.743Z,35.96
2019-02-25T14:39:04.943Z,35.96
2019-02-25T14:41:38.694Z,35.96
2019-02-25T14:44:10.834Z,35.93
2019-02-25T14:46:42.958Z,35.94
2019-02-25T14:49:15.091Z,35.95
2019-02-25T14:51:47.216Z,35.96
2019-02-25T14:54:19.617Z,35.94
2019-02-25T14:56:52.743Z,35.94
2019-02-25T14:59:25.567Z,35.94
2019-02-25T15:01:59.241Z,35.97
2019-02-25T15:04:32.889Z,35.92
2019-02-25T15:07:06.897Z,35.90
2019-02-25T15:09:41.278Z,35.89
2019-02-25T15:12:13.165Z,35.89
2019-02-25T15:14:45.300Z,35.88
2019-02-25T15:17:17.421Z,35.89
2019-02-25T15:19:49.551Z,35.88
2019-02-25T15:22:22.754Z,35.88
2019-02-25T15:24:55.063Z,35.84
2019-02-25T15:27:28.702Z,35.83
2019-02-25T15:30:00.827Z,35.83
2019-02-25T15:32:35.173Z,35.79
2019-02-25T15:35:07.309Z,35.75
2019-02-25T15:37:40.630Z,35.68
2019-02-25T15:40:14.582Z,35.64
2019-02-25T15:42:46.606Z,35.63
2019-02-25T15:45:18.742Z,35.63
2019-02-25T15:47:51.508Z,35.63
2019-02-25T15:52:53.340Z,35.50
2019-02-25T17:12:21.073Z,32.56
2019-02-25T17:14:53.377Z,33.96
2019-02-25T17:17:26.753Z,33.05
2019-02-25T17:19:58.891Z,33.02
2019-02-25T17:22:31.026Z,33.01
2019-02-25T17:25:08.193Z,33.06
2019-02-25T17:27:38.253Z,33.11
2019-02-25T17:30:10.415Z,33.19
2019-02-25T17:32:44.070Z,33.26
2019-02-25T17:35:16.388Z,33.31
2019-02-25T17:37:48.594Z,33.30
2019-02-25T17:40:20.754Z,33.36
2019-02-25T17:42:54.510Z,33.37
2019-02-25T17:45:29.319Z,33.38
2019-02-25T17:48:03.257Z,33.42
2019-02-25T17:50:37.032Z,33.41
2019-02-25T17:53:09.774Z,33.69
2019-02-25T17:55:42.245Z,33.69
2019-02-25T17:58:14.834Z,33.64
2019-02-25T18:00:47.811Z,33.62
2019-02-25T18:10:43.679Z,29.18
2019-02-25T18:13:16.591Z,31.33
2019-02-25T18:15:49.882Z,33.24
2019-02-25T18:18:24.561Z,34.89
2019-02-25T18:20:56.823Z,36.27
2019-02-25T18:23:28.958Z,37.16
2019-02-25T18:26:01.106Z,38.05
2019-02-25T18:28:34.898Z,38.47
2019-02-25T18:31:09.098Z,39.03
2019-02-25T18:33:42.026Z,39.63
2019-02-25T18:36:14.917Z,39.93
2019-02-25T18:38:48.593Z,40.25
2019-02-25T18:41:21.543Z,40.45
2019-02-25T18:43:54.777Z,40.57
2019-02-25T18:46:27.700Z,40.84
2019-02-25T18:49:00.794Z,40.94
2019-02-25T18:51:35.848Z,41.35
2019-02-25T18:54:07.867Z,41.39
2019-02-25T18:56:40.825Z,41.45
2019-02-25T18:59:16.211Z,41.79
2019-02-25T19:01:49.735Z,42.26
2019-02-25T19:04:22.649Z,42.67
2019-02-25T19:06:54.785Z,42.98
2019-02-25T19:09:27.692Z,43.03
2019-02-25T19:12:00.039Z,42.97
2019-02-25T19:14:33.186Z,42.58
2019-02-25T19:17:06.566Z,43.05
2019-02-25T19:19:40.563Z,43.04
2019-02-25T19:22:15.817Z,43.17
2019-02-25T19:24:49.271Z,43.13
2019-02-25T19:27:25.217Z,43.18
2019-02-25T19:30:00.238Z,43.03
2019-02-25T19:32:31.920Z,42.85
2019-02-25T19:35:06.762Z,42.75
2019-02-25T19:37:40.123Z,42.93
2019-02-25T19:40:14.247Z,43.26
2019-02-25T19:42:51.365Z,43.33
2019-02-25T19:45:21.859Z,43.84
2019-02-25T19:50:54.477Z,44.12
2019-02-25T19:53:31.481Z,44.26
2019-02-25T19:56:18.275Z,44.20
2019-02-25T19:58:58.070Z,44.27
2019-02-25T20:04:42.265Z,44.86
2019-02-25T20:12:44.802Z,45.31
2019-02-25T20:15:18.736Z,45.42
2019-02-25T20:17:55.106Z,45.40
2019-02-25T20:20:26.945Z,45.51
2019-02-25T20:22:59.948Z,45.56
2019-02-25T20:28:52.871Z,45.80
2019-02-25T20:34:22.580Z,46.20
2019-02-25T20:36:55.460Z,46.51
2019-02-25T20:42:21.410Z,46.84
2019-02-25T20:48:08.241Z,46.85
2019-02-25T20:50:37.075Z,46.86
2019-02-25T20:53:11.045Z,47.07
2019-02-25T20:55:43.283Z,47.09
2019-02-25T20:58:18.823Z,47.06
2019-02-25T21:00:51.996Z,47.53
2019-02-25T21:03:25.414Z,47.57
2019-02-25T21:05:58.362Z,47.62
2019-02-25T21:08:30.666Z,47.60
2019-02-25T21:11:07.992Z,47.55
2019-02-25T21:13:38.073Z,47.68
2019-02-25T21:16:13.181Z,47.75
2019-02-25T21:18:48.310Z,48.19
2019-02-25T21:21:19.230Z,48.43
2019-02-25T21:23:51.406Z,48.75
2019-02-25T21:26:25.465Z,48.86
2019-02-25T21:28:58.512Z,49.10
2019-02-25T21:31:32.252Z,49.29
2019-02-25T21:34:04.435Z,49.35
2019-02-25T21:36:38.161Z,49.34
2019-02-25T21:39:12.177Z,49.29
2019-02-25T21:41:45.861Z,49.35
2019-02-25T21:44:19.472Z,49.70
2019-02-25T21:46:54.037Z,49.81
2019-02-25T21:49:27.216Z,50.12
2019-02-25T21:52:02.480Z,50.16
2019-02-25T21:54:34.409Z,50.30
2019-02-25T21:57:09.730Z,50.66
2019-02-25T21:59:41.968Z,50.73
2019-02-25T22:02:14.104Z,50.84
2019-02-25T22:04:48.103Z,50.93
2019-02-25T22:07:24.447Z,50.83
2019-02-25T22:09:53.948Z,50.77
2019-02-25T22:12:26.879Z,50.61
2019-02-25T22:14:59.941Z,50.75
2019-02-25T22:17:32.069Z,51.08
2019-02-25T22:20:04.834Z,51.17
2019-02-25T22:22:38.072Z,50.95
2019-02-25T22:25:11.144Z,51.00
2019-02-25T22:27:45.593Z,50.99
2019-02-25T22:30:18.017Z,51.00
2019-02-25T22:32:50.166Z,51.14
2019-02-25T22:35:24.070Z,51.13
2019-02-25T22:37:58.085Z,51.34
2019-02-25T22:40:32.067Z,51.72
2019-02-25T22:43:03.927Z,51.67
2019-02-25T22:45:38.025Z,51.83
2019-02-25T22:48:11.657Z,51.89
2019-02-25T22:50:43.931Z,52.03
2019-02-25T22:53:16.063Z,52.08
2019-02-25T22:55:52.212Z,52.33
2019-02-25T22:58:23.715Z,52.40
2019-02-25T23:00:58.273Z,52.38
2019-02-25T23:03:31.600Z,52.76
2019-02-25T23:06:03.768Z,53.02
2019-02-25T23:08:35.931Z,52.90
2019-02-25T23:11:10.001Z,53.04
2019-02-25T23:13:43.300Z,52.68
2019-02-25T23:16:18.079Z,52.86
2019-02-25T23:18:49.570Z,52.94
2019-02-25T23:21:24.233Z,52.95
2019-02-25T23:23:57.685Z,52.76
2019-02-25T23:26:29.411Z,53.21
2019-02-25T23:29:01.638Z,53.07
2019-02-25T23:31:33.783Z,53.00
2019-02-25T23:34:10.035Z,53.00
2019-02-25T23:36:43.042Z,52.85
2019-02-25T23:39:17.140Z,53.12
2019-02-25T23:41:48.810Z,53.25
2019-02-25T23:44:22.198Z,53.51
2019-02-25T23:46:57.645Z,53.71
2019-02-25T23:49:28.722Z,53.72
2019-02-25T23:52:00.875Z,54.00
2019-02-25T23:54:33.022Z,53.94
2019-02-25T23:57:05.147Z,54.40
2019-02-25T23:59:40.413Z,54.26
